Time;durP1;ratioP1;P1;durP2;ratioP2;P2;SDS_P1;SDS_P2;PMS_P1;PMS_P2;Temp;Humidity;BMP_temperature;BMP_pressure;BME280_temperature;BME280_humidity;BME280_pressure;Samples;Min_cycle;Max_cycle;Signal;HPM_P1;HPM_P2
2022/05/20 00:01:46;;;;;;;8.23;4.30;;;;;;;12.15;100.00;101300.00;4901306;29;20024;-80
2022/05/20 00:04:12;;;;;;;11.60;4.57;;;;;;;12.55;100.00;101360.47;4899581;29;20126;-80
2022/05/20 00:06:37;;;;;;;10.50;4.10;;;;;;;12.52;100.00;101350.06;4897618;29;20037;-80
2022/05/20 00:09:05;;;;;;;10.48;4.50;;;;;;;12.48;100.00;101342.53;4881624;29;20093;-79
2022/05/20 00:11:32;;;;;;;13.93;4.85;;;;;;;12.51;100.00;101336.75;4892577;29;20372;-80
2022/05/20 00:13:57;;;;;;;12.63;4.60;;;;;;;12.43;100.00;101325.09;4901438;29;20033;-80
2022/05/20 00:16:23;;;;;;;9.02;4.22;;;;;;;12.32;100.00;101308.63;4899461;29;20039;-80
2022/05/20 00:18:48;;;;;;;9.50;4.60;;;;;;;12.48;100.00;101342.53;4884615;29;20088;-80
2022/05/20 00:21:14;;;;;;;14.00;5.20;;;;;;;12.44;100.00;101334.84;4901614;29;20039;-80
2022/05/20 00:23:40;;;;;;;10.70;5.78;;;;;;;12.32;100.00;101314.03;4912924;29;20394;-80
2022/05/20 00:26:05;;;;;;;14.00;5.50;;;;;;;12.37;100.00;101335.84;4902028;29;20032;-79
2022/05/20 00:28:31;;;;;;;11.88;5.95;;;;;;;12.31;100.00;101323.13;4896881;29;20431;-80
2022/05/20 00:31:04;;;;;;;9.88;5.20;;;;;;;12.33;100.00;101323.78;4899088;29;20064;-80
2022/05/20 00:33:30;;;;;;;9.52;5.10;;;;;;;12.37;100.00;101311.56;4900153;29;20093;-80
2022/05/20 00:35:56;;;;;;;8.45;5.05;;;;;;;12.33;100.00;101304.91;4898846;29;20104;-80
2022/05/20 00:38:22;;;;;;;8.23;4.53;;;;;;;12.20;100.00;101303.78;4898492;29;20040;-81
2022/05/20 00:40:49;;;;;;;9.13;4.90;;;;;;;12.27;100.00;101316.47;4889452;29;20036;-81
2022/05/20 00:43:24;;;;;;;7.72;3.78;;;;;;;12.32;100.00;101317.56;4904589;29;20423;-80
2022/05/20 00:45:50;;;;;;;9.32;4.43;;;;;;;12.16;100.00;101289.00;4910838;29;20024;-80
2022/05/20 00:48:16;;;;;;;6.30;4.43;;;;;;;12.41;100.00;101326.31;4911906;29;20115;-80
2022/05/20 00:50:48;;;;;;;9.85;4.30;;;;;;;12.16;100.00;101270.13;4899692;29;20028;-79
2022/05/20 00:53:18;;;;;;;9.63;4.07;;;;;;;12.25;100.00;101291.53;4848618;29;1969475;-79
2022/05/20 00:55:45;;;;;;;9.23;4.40;;;;;;;12.31;100.00;101294.28;4918957;29;20043;-80
2022/05/20 00:58:15;;;;;;;8.77;4.75;;;;;;;12.46;100.00;101321.16;4924934;29;20024;-80
2022/05/20 01:00:47;;;;;;;9.90;4.75;;;;;;;12.50;100.00;101327.81;4926482;29;20031;-80
2022/05/20 01:03:15;;;;;;;10.20;5.03;;;;;;;12.43;100.00;101313.47;4900168;29;20035;-80
2022/05/20 01:05:46;;;;;;;8.45;4.70;;;;;;;12.45;100.00;101320.34;4918044;29;20036;-79
2022/05/20 01:08:16;;;;;;;7.35;4.40;;;;;;;12.56;100.00;101335.13;4902634;29;20099;-80
2022/05/20 01:10:42;;;;;;;10.18;4.75;;;;;;;12.60;100.00;101339.09;4918513;29;20030;-80
2022/05/20 01:13:08;;;;;;;12.70;5.10;;;;;;;12.59;100.00;101350.94;4902798;29;20032;-79
2022/05/20 01:15:34;;;;;;;9.52;5.05;;;;;;;12.58;100.00;101343.88;4916997;29;20039;-79
2022/05/20 01:17:59;;;;;;;9.73;5.03;;;;;;;12.58;100.00;101343.88;4901889;29;20032;-81
2022/05/20 01:20:29;;;;;;;8.98;4.90;;;;;;;12.45;100.00;101319.50;4918468;29;20039;-79
2022/05/20 01:23:13;;;;;;;8.60;5.20;;;;;;;12.59;100.00;101329.34;4899279;29;20099;-79
2022/05/20 01:25:48;;;;;;;11.40;5.53;;;;;;;12.46;100.00;101315.75;4902324;29;20040;-79
2022/05/20 01:28:13;;;;;;;;;;;;;;;12.53;100.00;101337.41;4915216;29;20028;-80
2022/05/20 01:30:48;;;;;;;9.02;4.80;;;;;;;12.49;100.00;101326.16;4902649;29;19911;-80
2022/05/20 01:33:30;;;;;;;8.02;4.65;;;;;;;12.49;100.00;101334.25;4911462;29;20035;-80
2022/05/20 01:35:56;;;;;;;6.63;4.05;;;;;;;12.46;100.00;101342.75;4910548;29;20044;-80
2022/05/20 01:38:22;;;;;;;12.70;4.57;;;;;;;12.47;100.00;101330.91;4904788;29;20046;-80
2022/05/20 01:40:52;;;;;;;10.60;5.10;;;;;;;12.40;100.00;101333.56;4901100;29;20040;-80
2022/05/20 01:43:39;;;;;;;6.43;4.32;;;;;;;12.45;100.00;101343.78;4918595;29;20156;-80
2022/05/20 01:46:25;;;;;;;9.05;4.50;;;;;;;12.43;100.00;101346.69;4919213;29;20110;-80
2022/05/20 01:49:13;;;;;;;8.77;4.97;;;;;;;12.41;100.00;101353.28;4919422;29;20086;-80
2022/05/20 01:51:55;;;;;;;7.55;4.70;;;;;;;12.36;100.00;101340.41;4917882;29;20462;-80
2022/05/20 01:54:30;;;;;;;9.60;5.25;;;;;;;12.37;100.00;101343.94;4901556;29;20083;-80
2022/05/20 01:57:04;;;;;;;8.88;5.25;;;;;;;12.24;100.00;101328.47;4903093;29;20116;-80
2022/05/20 01:59:36;;;;;;;9.00;5.43;;;;;;;12.33;100.00;101351.59;4902863;29;20047;-80
2022/05/20 02:02:10;;;;;;;8.77;5.05;;;;;;;12.32;100.00;101362.59;4892644;29;20020;-80
2022/05/20 02:04:43;;;;;;;8.90;4.90;;;;;;;12.30;100.00;101356.56;4919917;29;20072;-80
2022/05/20 02:07:16;;;;;;;8.65;5.10;;;;;;;12.30;100.00;101362.78;4918467;29;20059;-80
2022/05/20 02:09:55;;;;;;;8.00;4.70;;;;;;;12.15;100.00;101344.00;4902735;29;20366;-80
2022/05/20 02:12:25;;;;;;;7.75;4.97;;;;;;;12.06;100.00;101329.00;4917040;29;20343;-80
2022/05/20 02:15:16;;;;;;;7.07;4.60;;;;;;;12.27;100.00;101368.56;4901980;29;20039;-79
2022/05/20 02:17:46;;;;;;;7.93;4.55;;;;;;;12.13;100.00;101343.38;4900721;29;20024;-80
2022/05/20 02:20:36;;;;;;;8.15;4.38;;;;;;;12.27;100.00;101354.25;4918568;29;20035;-80
2022/05/20 02:23:07;;;;;;;6.25;4.32;;;;;;;12.23;100.00;101351.94;4916732;29;20110;-80
2022/05/20 02:25:37;;;;;;;7.47;4.30;;;;;;;12.16;100.00;101350.22;4901348;29;20476;-80
2022/05/20 02:28:43;;;;;;;6.63;4.07;;;;;;;12.21;100.00;101358.56;4901356;29;20063;-80
2022/05/20 02:31:18;;;;;;;7.45;3.78;;;;;;;12.11;100.00;101339.19;4898353;29;20092;-80
2022/05/20 02:33:44;;;;;;;9.90;4.57;;;;;;;11.90;100.00;101305.00;4918902;29;20042;-80
2022/05/20 02:36:28;;;;;;;8.68;4.18;;;;;;;12.11;100.00;101336.50;4904714;29;20111;-80
2022/05/20 02:38:53;;;;;;;6.05;3.72;;;;;;;12.07;100.00;101340.63;4913064;29;20047;-80
2022/05/20 02:41:21;;;;;;;7.38;3.95;;;;;;;12.03;100.00;101339.34;4929695;29;20127;-80
2022/05/20 02:43:52;;;;;;;7.22;4.00;;;;;;;11.94;100.00;101338.63;4929610;29;20032;-80
2022/05/20 02:46:17;;;;;;;6.03;3.70;;;;;;;11.84;100.00;101327.31;4917408;29;20024;-80
2022/05/20 02:48:43;;;;;;;8.85;3.83;;;;;;;11.92;100.00;101355.03;4885884;29;20095;-79
2022/05/20 02:51:08;;;;;;;10.68;4.07;;;;;;;11.89;100.00;101349.19;4916052;29;20024;-79
2022/05/20 02:53:34;;;;;;;9.27;4.40;;;;;;;11.90;100.00;101345.47;4885227;29;20578;-79
2022/05/20 02:56:00;;;;;;;9.55;4.60;;;;;;;11.93;100.00;101343.19;4899879;29;20407;-79
2022/05/20 03:04:12;;;;;;;10.20;5.82;;;;;;;11.97;100.00;101332.84;4917234;29;20465;-79
2022/05/20 03:06:37;;;;;;;9.75;5.40;;;;;;;12.07;100.00;101336.03;4901065;29;20040;-80
2022/05/20 03:09:06;;;;;;;13.02;7.10;;;;;;;12.07;100.00;101327.94;4899917;29;20034;-80
2022/05/20 03:11:32;;;;;;;13.80;7.45;;;;;;;12.15;100.00;101332.34;4899018;29;20028;-80
2022/05/20 03:13:57;;;;;;;15.52;7.28;;;;;;;12.08;100.00;101310.72;4900305;29;20027;-79
2022/05/20 03:16:22;;;;;;;13.23;7.28;;;;;;;11.88;100.00;101283.63;4898461;29;20036;-79
2022/05/20 03:18:48;;;;;;;13.50;7.53;;;;;;;12.28;100.00;101327.06;4917242;29;20625;-79
2022/05/20 03:21:13;;;;;;;12.98;6.78;;;;;;;12.32;100.00;101335.63;4898754;29;20036;-80
2022/05/20 03:23:38;;;;;;;13.30;6.57;;;;;;;12.34;100.00;101325.44;4884123;29;20046;-79
2022/05/20 03:26:04;;;;;;;14.13;5.95;;;;;;;12.14;100.00;101304.56;4900058;29;20036;-79
2022/05/20 03:28:30;;;;;;;12.48;5.28;;;;;;;12.39;100.00;101336.50;4899829;29;20047;-79
2022/05/20 03:31:07;;;;;;;10.40;4.80;;;;;;;12.23;100.00;101313.34;4904109;29;20344;-79
2022/05/20 03:33:33;;;;;;;9.75;4.88;;;;;;;12.08;100.00;101272.97;4918533;29;20060;-79
2022/05/20 03:35:59;;;;;;;9.52;4.35;;;;;;;12.50;100.00;101341.31;4903704;29;20040;-79
2022/05/20 03:38:24;;;;;;;8.45;4.70;;;;;;;12.54;100.00;101341.75;4908970;29;20123;-79
2022/05/20 03:40:49;;;;;;;9.40;4.00;;;;;;;12.29;100.00;101290.97;4903021;29;20028;-79
2022/05/20 03:43:15;;;;;;;8.48;3.70;;;;;;;12.60;100.00;101331.00;4903640;29;20036;-79
2022/05/20 03:45:42;;;;;;;8.55;3.35;;;;;;;12.61;100.00;101338.03;4916967;29;20060;-79
2022/05/20 03:48:09;;;;;;;9.48;3.70;;;;;;;12.53;100.00;101315.81;4920528;29;20047;-79
2022/05/20 03:50:35;;;;;;;8.85;3.58;;;;;;;12.69;100.00;101326.28;4918056;29;20043;-79
2022/05/20 03:53:00;;;;;;;7.03;3.10;;;;;;;12.58;100.00;101316.03;4874765;29;20053;-79
2022/05/20 03:55:28;;;;;;;9.07;3.00;;;;;;;12.73;100.00;101329.41;4881000;29;20495;-79
2022/05/20 03:57:53;;;;;;;6.75;3.10;;;;;;;12.75;100.00;101330.88;4885254;29;20029;-79
2022/05/20 04:00:19;;;;;;;6.40;2.88;;;;;;;12.78;100.00;101321.50;4867868;29;20443;-79
2022/05/20 04:02:44;;;;;;;7.03;2.70;;;;;;;12.77;100.00;101320.69;4890940;29;20041;-79
2022/05/20 04:05:10;;;;;;;9.48;2.80;;;;;;;12.80;100.00;101303.25;4884786;29;20020;-79
2022/05/20 04:07:36;;;;;;;6.15;2.70;;;;;;;12.55;100.00;101265.97;4883756;29;20037;-79
2022/05/20 04:10:02;;;;;;;5.38;2.53;;;;;;;12.69;100.00;101293.88;4870779;29;20043;-79
2022/05/20 04:12:30;;;;;;;4.55;2.53;;;;;;;12.92;100.00;101317.84;4911387;29;20028;-79
2022/05/20 04:14:58;;;;;;;8.65;2.60;;;;;;;12.97;100.00;101322.63;4897346;29;20059;-80
2022/05/20 04:17:24;;;;;;;8.35;2.70;;;;;;;12.97;100.00;101328.03;4916947;29;20060;-80
2022/05/20 04:19:50;;;;;;;6.97;2.28;;;;;;;12.57;100.00;101271.16;4910468;29;20021;-80
2022/05/20 04:22:20;;;;;;;7.43;2.45;;;;;;;12.94;100.00;101327.41;4890498;29;20126;-79
2022/05/20 04:24:46;;;;;;;7.50;2.47;;;;;;;12.94;100.00;101327.41;4884761;29;20036;-79
2022/05/20 04:27:11;;;;;;;9.23;2.60;;;;;;;12.94;100.00;101313.88;4854715;29;20487;-80
2022/05/20 04:29:39;;;;;;;11.15;2.15;;;;;;;12.97;100.00;101320.75;4898787;29;20032;-79
2022/05/20 04:32:05;;;;;;;7.93;2.10;;;;;;;12.93;100.00;101316.81;4885134;29;20024;-79
2022/05/20 04:34:31;;;;;;;9.18;2.22;;;;;;;12.56;100.00;101275.75;4902775;29;20071;-80
2022/05/20 04:36:57;;;;;;;5.85;2.10;;;;;;;12.88;100.00;101322.81;4870759;29;20537;-80
2022/05/20 04:39:23;;;;;;;5.50;1.83;;;;;;;12.92;100.00;101317.84;4883700;29;20095;-80
2022/05/20 04:47:25;;;;;;;7.45;2.42;;;;;;;12.84;100.00;101321.53;4887544;29;20072;-81
2022/05/20 04:49:52;;;;;;;5.50;2.00;;;;;;;12.80;100.00;101324.84;4887194;29;20056;-78
2022/05/20 04:52:18;;;;;;;8.82;2.40;;;;;;;12.83;100.00;101319.06;4877524;29;20148;-78
2022/05/20 04:54:49;;;;;;;5.53;2.22;;;;;;;12.79;100.00;101317.81;4884582;29;20412;-78
2022/05/20 04:57:30;;;;;;;7.05;2.40;;;;;;;12.77;100.00;101327.97;4884550;29;20033;-77
2022/05/20 05:00:09;;;;;;;7.32;2.40;;;;;;;12.82;100.00;101344.41;4897942;29;20443;-76
2022/05/20 05:02:35;;;;;;;6.18;2.53;;;;;;;12.79;100.00;101334.00;4880186;29;20115;-80
2022/05/20 05:05:02;;;;;;;8.57;2.72;;;;;;;12.80;100.00;101325.69;4899104;29;20120;-79
2022/05/20 05:07:27;;;;;;;11.65;3.00;;;;;;;12.76;100.00;101323.59;4865768;29;20052;-80
2022/05/20 05:09:53;;;;;;;10.75;2.70;;;;;;;12.74;100.00;101331.88;4882605;29;20442;-79
2022/05/20 05:12:20;;;;;;;10.90;2.85;;;;;;;12.84;100.00;101353.13;4865092;29;20043;-76
2022/05/20 05:14:51;;;;;;;6.40;2.83;;;;;;;12.77;100.00;101328.78;4884709;29;20029;-77
2022/05/20 05:18:09;;;;;;;13.77;2.92;;;;;;;12.92;100.00;101350.28;4895065;29;20036;-78
2022/05/20 05:20:20;;;;;;;12.25;2.97;;;;;;;12.54;100.00;101301.25;4894231;29;20111;-78
2022/05/20 05:22:48;;;;;;;12.88;3.28;;;;;;;12.86;100.00;101359.16;4898877;29;20039;-78
2022/05/20 05:25:15;;;;;;;7.85;3.10;;;;;;;12.78;100.00;101353.91;4897963;29;20028;-78
2022/05/20 05:27:40;;;;;;;7.75;3.60;;;;;;;12.72;100.00;101355.56;4900449;29;20037;-78
2022/05/20 05:30:11;;;;;;;11.65;3.83;;;;;;;12.75;100.00;101368.69;4867325;29;20032;-78
2022/05/20 05:32:37;;;;;;;11.35;4.20;;;;;;;12.77;100.00;101357.66;4868079;29;20370;-78
2022/05/20 05:35:08;;;;;;;10.73;3.92;;;;;;;12.79;100.00;101358.31;4899030;29;20374;-77
2022/05/20 05:37:34;;;;;;;10.40;4.05;;;;;;;12.69;100.00;101350.56;4866153;29;20036;-78
2022/05/20 05:39:59;;;;;;;8.88;3.78;;;;;;;12.81;100.00;101356.22;4898645;29;20510;-80
2022/05/20 05:42:25;;;;;;;8.90;3.58;;;;;;;12.86;100.00;101353.78;4881060;29;20036;-80
2022/05/20 05:44:52;;;;;;;10.23;3.60;;;;;;;12.57;100.00;101311.66;4897602;29;20447;-79
2022/05/20 05:47:18;;;;;;;11.43;4.20;;;;;;;12.82;100.00;101334.44;4865170;29;20355;-80
2022/05/20 05:49:43;;;;;;;12.00;4.00;;;;;;;12.78;100.00;101326.91;4863323;29;20029;-80
2022/05/20 05:52:08;;;;;;;11.73;4.07;;;;;;;12.61;100.00;101304.81;4878490;29;20072;-79
2022/05/20 05:54:35;;;;;;;10.32;3.83;;;;;;;12.87;100.00;101353.56;4833380;29;20043;-77
2022/05/20 05:57:01;;;;;;;17.25;4.20;;;;;;;12.94;100.00;101364.38;4880954;29;20025;-77
2022/05/20 05:59:27;;;;;;;13.52;3.80;;;;;;;13.00;100.00;101365.47;4878913;29;20062;-79
2022/05/20 06:01:59;;;;;;;9.68;3.40;;;;;;;13.00;100.00;101358.19;4882814;29;20037;-80
2022/05/20 06:04:26;;;;;;;11.07;4.05;;;;;;;12.90;100.00;101346.94;4864195;29;20037;-80
2022/05/20 06:06:52;;;;;;;15.63;4.55;;;;;;;13.10;100.00;101374.84;4850243;29;20033;-81
2022/05/20 06:09:18;;;;;;;12.25;4.00;;;;;;;13.11;100.00;101359.47;4864147;29;20051;-80
2022/05/20 06:11:44;;;;;;;12.70;4.25;;;;;;;12.98;100.00;101318.91;4887902;29;20506;-81
2022/05/20 06:14:10;;;;;;;12.30;3.67;;;;;;;13.14;100.00;101337.44;4883755;29;20048;-80
2022/05/20 06:16:38;;;;;;;12.50;3.85;;;;;;;13.35;100.00;101339.22;4864056;29;20142;-80
2022/05/20 06:19:03;;;;;;;12.18;4.47;;;;;;;13.49;100.00;101354.44;4865672;29;20680;-80
2022/05/20 06:21:28;;;;;;;14.45;3.90;;;;;;;13.54;100.00;101334.88;4888737;29;20116;-77
2022/05/20 06:23:54;;;;;;;11.68;4.18;;;;;;;13.77;100.00;101353.41;4845755;29;20522;-78
2022/05/20 06:26:19;;;;;;;13.50;4.05;;;;;;;13.74;100.00;101329.47;4885643;29;20028;-79
2022/05/20 06:28:45;;;;;;;13.25;3.92;;;;;;;13.92;100.00;101350.53;4868610;29;20037;-79
2022/05/20 06:31:11;;;;;;;14.75;4.22;;;;;;;14.06;100.00;101355.72;4864767;29;20033;-78
2022/05/20 06:33:36;;;;;;;12.18;4.60;;;;;;;14.00;100.00;101353.84;4878417;29;20036;-77
2022/05/20 06:41:30;;;;;;;17.80;4.30;;;;;;;14.18;100.00;101341.56;4869156;29;20132;-77
2022/05/20 06:43:55;;;;;;;12.68;3.80;;;;;;;14.24;100.00;101365.94;4879187;29;20119;-77
2022/05/20 06:46:21;;;;;;;12.15;4.05;;;;;;;14.32;100.00;101360.28;4881281;29;20040;-78
2022/05/20 06:48:53;;;;;;;12.07;4.05;;;;;;;14.47;100.00;101370.03;4874353;29;20444;-79
2022/05/20 06:51:28;;;;;;;12.32;4.13;;;;;;;14.28;100.00;101333.84;4883055;29;20103;-80
2022/05/20 06:53:55;;;;;;;10.25;3.60;;;;;;;14.48;100.00;101375.25;4888655;29;20423;-80
2022/05/20 06:56:24;;;;;;;11.80;3.92;;;;;;;14.38;100.00;101382.97;4895862;29;20080;-79
2022/05/20 06:58:49;;;;;;;12.18;3.40;;;;;;;14.39;100.00;101376.50;4896465;29;20412;-80
2022/05/20 07:01:15;;;;;;;10.70;4.07;;;;;;;14.22;100.00;101345.50;4895706;29;20055;-80
2022/05/20 07:03:40;;;;;;;10.55;3.97;;;;;;;14.45;100.00;101375.69;4913018;29;20123;-79
2022/05/20 07:06:07;;;;;;;11.35;3.95;;;;;;;14.61;100.00;101373.59;4919064;29;20024;-79
2022/05/20 07:08:34;;;;;;;13.25;4.07;;;;;;;14.53;100.00;101374.66;4896871;29;20032;-80
2022/05/20 07:11:01;;;;;;;22.73;4.60;;;;;;;14.66;100.00;101371.91;4893998;29;20032;-80
2022/05/20 07:13:30;;;;;;;12.35;3.67;;;;;;;14.66;100.00;101363.78;4912188;29;20029;-77
2022/05/20 07:15:57;;;;;;;17.20;4.05;;;;;;;15.02;100.00;101352.41;4899588;29;20024;-78
2022/05/20 07:18:26;;;;;;;13.23;4.25;;;;;;;15.42;100.00;101378.50;4899587;29;20526;-78
2022/05/20 07:20:51;;;;;;;9.85;3.85;;;;;;;15.36;100.00;101382.88;4900177;29;20092;-78
2022/05/20 07:23:17;;;;;;;8.35;3.67;;;;;;;15.15;100.00;101372.38;4875273;29;20070;-79
2022/05/20 07:25:42;;;;;;;14.93;4.50;;;;;;;15.14;100.00;101386.97;4903991;29;20120;-79
2022/05/20 07:28:08;;;;;;;15.43;4.10;;;;;;;15.00;100.00;101326.59;4874110;29;20069;-81
2022/05/20 07:30:33;;;;;;;12.43;4.00;;;;;;;15.33;100.00;101387.91;4905787;29;20076;-81
2022/05/20 07:32:59;;;;;;;14.48;4.93;;;;;;;15.21;100.00;101394.03;4912129;29;20044;-82
2022/05/20 07:35:24;;;;;;;11.90;3.95;;;;;;;15.34;100.00;101392.31;4924672;29;20038;-82
2022/05/20 07:37:53;;;;;;;14.95;4.32;;;;;;;15.29;100.00;101384.81;4893804;29;20029;-82
2022/05/20 07:40:20;;;;;;;15.65;4.35;;;;;;;15.31;100.00;101352.91;4906187;29;20036;-81
2022/05/20 07:42:46;;;;;;;15.95;4.57;;;;;;;15.29;100.00;101330.59;4890779;29;20064;-80
2022/05/20 07:45:13;;;;;;;9.07;4.03;;;;;;;15.44;100.00;101352.81;4873979;29;20060;-82
2022/05/20 07:47:39;;;;;;;11.07;3.83;;;;;;;15.56;100.00;101384.66;4908229;29;20454;-78
2022/05/20 07:50:05;;;;;;;13.18;4.60;;;;;;;15.48;100.00;101375.75;4893024;29;20051;-80
2022/05/20 07:55:27;;;;;;;15.23;4.35;;;;;;;15.24;100.00;101362.94;4915103;29;20084;-81
2022/05/20 07:57:54;;;;;;;16.10;4.13;;;;;;;15.31;100.00;101371.88;4913843;29;20076;-80
2022/05/20 08:00:21;;;;;;;10.85;4.25;;;;;;;15.58;100.00;101402.38;4900080;29;20375;-80
2022/05/20 08:02:48;;;;;;;10.85;3.80;;;;;;;15.41;100.00;101374.94;4913902;29;20036;-80
2022/05/20 08:05:24;;;;;;;11.40;4.05;;;;;;;15.50;100.00;101398.06;4894809;29;20025;-80
2022/05/20 08:07:50;;;;;;;14.23;4.25;;;;;;;15.56;100.00;101398.22;4920800;29;20366;-81
2022/05/20 08:10:19;;;;;;;10.75;4.25;;;;;;;15.68;100.00;101399.22;4869958;29;20037;-81
2022/05/20 08:12:47;;;;;;;10.80;3.97;;;;;;;15.78;100.00;101409.63;4918997;29;20111;-80
2022/05/20 08:15:15;;;;;;;13.43;4.18;;;;;;;15.77;100.00;101413.38;4897573;29;20031;-81
2022/05/20 08:17:43;;;;;;;12.82;4.10;;;;;;;15.55;100.00;101413.66;4884396;29;20051;-80
2022/05/20 08:20:16;;;;;;;14.82;4.43;;;;;;;15.48;100.00;101415.59;4919718;29;20024;-80
2022/05/20 08:22:41;;;;;;;9.23;3.50;;;;;;;15.31;100.00;101388.16;4901154;29;20410;-80
2022/05/20 08:25:07;;;;;;;13.95;4.20;;;;;;;15.63;100.00;101415.28;4903311;29;20071;-80
2022/05/20 08:27:33;;;;;;;10.10;4.10;;;;;;;15.78;100.00;101407.72;4904179;29;20128;-80
2022/05/20 08:30:07;;;;;;;17.67;3.83;;;;;;;15.85;100.00;101404.97;4901234;29;20043;-80
2022/05/20 08:32:33;;;;;;;15.55;4.20;;;;;;;15.86;100.00;101401.19;4902629;29;20348;-81
2022/05/20 08:34:58;;;;;;;13.70;4.63;;;;;;;15.81;100.00;101399.16;4871735;29;20091;-80
2022/05/20 08:37:23;;;;;;;12.35;3.92;;;;;;;15.49;100.00;101355.69;4887017;29;20364;-80
2022/05/20 08:39:49;;;;;;;14.60;3.97;;;;;;;15.81;100.00;101410.00;4885967;29;20079;-80
2022/05/20 08:42:29;;;;;;;13.38;3.75;;;;;;;15.91;100.00;101407.63;4919752;29;20529;-80
2022/05/20 08:44:55;;;;;;;12.68;4.00;;;;;;;15.80;100.00;101392.06;4917502;29;20036;-80
2022/05/20 08:47:26;;;;;;;11.77;3.55;;;;;;;15.98;100.00;101411.13;4886465;29;20553;-80
2022/05/20 08:50:00;;;;;;;13.15;4.00;;;;;;;15.75;100.00;101389.16;4916619;29;20024;-81
2022/05/20 08:52:27;;;;;;;11.55;3.95;;;;;;;15.93;100.00;101410.16;4897025;29;20163;-81
2022/05/20 08:54:52;;;;;;;10.27;3.90;;;;;;;15.93;100.00;101419.13;4883869;29;20028;-79
2022/05/20 08:57:23;;;;;;;10.18;3.95;;;;;;;15.57;100.00;101367.34;4884368;29;20035;-81
2022/05/20 08:59:49;;;;;;;12.75;3.67;;;;;;;15.81;100.00;101439.84;4882355;29;20033;-79
2022/05/20 09:02:15;;;;;;;10.80;3.67;;;;;;;15.97;100.00;101425.75;4885343;29;20036;-80
2022/05/20 09:04:40;;;;;;;15.82;3.70;;;;;;;15.94;100.00;101431.63;4880764;29;20037;-80
2022/05/20 09:07:11;;;;;;;8.45;3.35;;;;;;;15.97;100.00;101436.63;4860416;29;20033;-80
2022/05/20 09:09:40;;;;;;;10.38;3.28;;;;;;;15.87;100.00;101438.97;4898334;29;20021;-81
2022/05/20 09:12:06;;;;;;;16.55;3.67;;;;;;;15.76;100.00;101414.41;4884082;29;20137;-78
2022/05/20 09:17:21;;;;;;;11.73;4.03;;;;;;;15.76;100.00;101441.53;4895590;29;20489;-81
2022/05/20 09:19:52;;;;;;;11.82;3.45;;;;;;;15.78;100.00;101451.13;4894699;29;20036;-81
2022/05/20 09:22:24;;;;;;;12.50;3.38;;;;;;;15.63;100.00;101450.56;4895929;29;20757;-81
2022/05/20 09:24:49;;;;;;;9.25;3.20;;;;;;;15.66;100.00;101447.41;4877779;29;20036;-79
2022/05/20 09:27:26;;;;;;;9.15;2.70;;;;;;;15.63;100.00;101420.72;4882211;29;20390;-79
2022/05/20 09:30:16;;;;;;;7.72;3.30;;;;;;;15.54;100.00;101446.47;4896763;29;20040;-78
2022/05/20 09:33:01;;;;;;;9.80;3.30;;;;;;;15.71;100.00;101450.34;4875387;29;20371;-79
2022/05/20 09:35:31;;;;;;;;;;;;;;;15.68;100.00;101450.78;4876603;29;20040;-81
2022/05/20 09:37:56;;;;;;;13.55;3.20;;;;;;;15.59;100.00;101447.44;4879503;29;19911;-81
2022/05/20 09:40:24;;;;;;;15.13;3.97;;;;;;;15.74;100.00;101448.03;4892660;29;20037;-80
2022/05/20 09:43:28;;;;;;;13.05;4.20;;;;;;;15.82;100.00;101460.50;4897446;29;20466;-81
2022/05/20 09:46:39;;;;;;;13.30;3.75;;;;;;;15.49;100.00;101457.94;4897148;29;20024;-80
2022/05/20 09:49:13;;;;;;;10.38;3.35;;;;;;;15.60;100.00;101457.28;4832313;29;20048;-80
2022/05/20 09:51:41;;;;;;;;;;;;;;;15.67;100.00;101468.13;4893986;29;20451;-81
2022/05/20 09:54:32;;;;;;;13.25;3.90;;;;;;;15.65;100.00;101462.88;4896690;29;20392;-80
2022/05/20 09:57:04;;;;;;;16.27;4.07;;;;;;;15.71;100.00;101464.75;4900698;29;20110;-80
2022/05/20 09:59:45;;;;;;;10.00;3.55;;;;;;;15.64;100.00;101463.91;4901870;29;20032;-80
2022/05/20 10:02:31;;;;;;;10.95;3.55;;;;;;;15.63;100.00;101456.84;4902571;29;20028;-81
2022/05/20 10:05:19;;;;;;;12.18;4.05;;;;;;;15.60;100.00;101478.16;4893644;29;20025;-80
2022/05/20 10:08:27;;;;;;;10.80;4.45;;;;;;;15.80;100.00;101468.03;4889320;29;20032;-80
2022/05/20 10:11:04;;;;;;;11.95;3.15;;;;;;;15.99;100.00;101458.09;4915244;29;20454;-80
2022/05/20 10:14:06;;;;;;;10.02;3.28;;;;;;;16.23;100.00;101478.22;4916741;29;20031;-82
2022/05/20 10:16:52;;;;;;;10.90;3.63;;;;;;;16.33;100.00;101475.84;4923799;29;20111;-81
2022/05/20 10:19:39;;;;;;;8.70;3.20;;;;;;;16.56;100.00;101471.69;4920260;29;20028;-82
2022/05/20 10:22:15;;;;;;;10.00;3.42;;;;;;;16.71;100.00;101466.72;4899147;29;20019;-81
2022/05/20 10:25:08;;;;;;;10.48;3.35;;;;;;;16.56;100.00;101464.34;4918338;29;20016;-81
2022/05/20 10:28:04;;;;;;;12.05;2.90;;;;;;;16.51;100.00;101464.19;4900041;29;20030;-80
2022/05/20 10:33:29;;;;;;;9.00;2.90;;;;;;;16.39;100.00;101455.09;4917688;29;20382;-81
2022/05/20 10:36:07;;;;;;;12.10;3.75;;;;;;;16.44;100.00;101463.41;4902897;29;20082;-80
2022/05/20 10:38:44;;;;;;;14.00;3.00;;;;;;;16.33;100.00;101459.53;4901316;29;20158;-80
2022/05/20 10:41:20;;;;;;;10.38;2.92;;;;;;;16.31;100.00;101453.47;4901893;29;20123;-81
2022/05/20 10:50:32;;;;;;;11.95;3.45;;;;;;;16.46;100.00;101464.03;4914997;29;20064;-80
2022/05/20 10:53:21;;;;;;;11.60;3.13;;;;;;;16.38;100.00;101470.56;4885187;29;20080;-78
2022/05/20 10:56:06;;;;;;;11.52;2.83;;;;;;;16.30;100.00;101468.13;4916496;29;20047;-77
2022/05/20 10:58:49;;;;;;;10.85;3.50;;;;;;;16.11;100.00;101460.97;4920082;29;20035;-80
2022/05/20 11:01:26;;;;;;;11.57;3.08;;;;;;;16.24;100.00;101474.44;4904872;29;20052;-80
2022/05/20 11:04:11;;;;;;;17.23;4.22;;;;;;;16.03;100.00;101469.38;4901056;29;20363;-80
2022/05/20 11:07:11;;;;;;;12.95;3.88;;;;;;;15.75;100.00;101478.72;4912160;29;20173;-80
2022/05/20 11:10:01;;;;;;;11.48;3.90;;;;;;;15.35;100.00;101476.16;4917207;29;20043;-80
2022/05/20 11:12:53;;;;;;;13.20;4.47;;;;;;;15.21;100.00;101490.81;4919444;29;20031;-78
2022/05/20 11:15:32;;;;;;;16.38;4.15;;;;;;;15.26;100.00;101466.56;4919224;29;20024;-77
2022/05/20 11:18:14;;;;;;;15.77;4.28;;;;;;;14.87;100.00;101468.38;4907178;29;20511;-80
2022/05/20 11:21:09;;;;;;;13.60;3.75;;;;;;;15.00;100.00;101473.75;4913212;29;20450;-81
2022/05/20 11:24:12;;;;;;;14.65;4.22;;;;;;;14.82;100.00;101475.44;4900410;29;20466;-80
2022/05/20 11:26:41;;;;;;;15.20;3.85;;;;;;;14.61;100.00;101485.47;4903022;29;20172;-81
2022/05/20 11:29:32;;;;;;;16.70;3.95;;;;;;;14.79;100.00;101479.41;4918701;29;20039;-80
2022/05/20 11:32:04;;;;;;;17.67;4.57;;;;;;;14.60;100.00;101435.03;4915911;29;20059;-80
2022/05/20 11:34:58;;;;;;;17.00;4.45;;;;;;;14.84;100.00;101484.22;4917630;29;20032;-80
2022/05/20 11:37:37;;;;;;;16.42;4.03;;;;;;;14.57;100.00;101446.31;4898305;29;20040;-81
2022/05/20 11:40:27;;;;;;;23.15;4.35;;;;;;;14.59;100.00;101473.19;4898921;29;20086;-80
2022/05/20 11:43:24;;;;;;;14.73;3.50;;;;;;;14.43;100.00;101471.69;4915550;29;20028;-80
2022/05/20 11:46:04;;;;;;;15.52;3.90;;;;;;;14.36;100.00;101466.28;4902393;29;20032;-80
2022/05/20 11:48:54;;;;;;;20.20;4.45;;;;;;;14.20;100.00;101437.72;4918706;29;20020;-80
2022/05/20 11:51:44;;;;;;;13.90;3.55;;;;;;;14.23;100.00;101455.44;4901109;29;20028;-80
2022/05/20 11:54:21;;;;;;;15.05;3.40;;;;;;;14.17;100.00;101465.25;4919805;29;20044;-80
2022/05/20 11:56:57;;;;;;;14.57;3.20;;;;;;;14.27;100.00;101465.66;4903764;29;20407;-80
2022/05/20 11:59:30;;;;;;;16.15;3.67;;;;;;;14.30;100.00;101467.97;4922039;29;20036;-81
2022/05/20 12:01:58;;;;;;;16.15;3.58;;;;;;;14.13;100.00;101409.00;4922560;29;20051;-80
2022/05/20 12:04:28;;;;;;;19.88;3.95;;;;;;;14.57;100.00;101451.75;4918209;29;20434;-80